createdAt,value
2019-05-11T00:03:39.082Z,11.90
2019-05-11T00:08:44.482Z,11.79
2019-05-11T00:13:50.012Z,11.71
2019-05-11T00:18:55.365Z,11.63
2019-05-11T00:24:00.670Z,11.63
2019-05-11T00:29:06.479Z,11.63
2019-05-11T00:34:11.876Z,11.59
2019-05-11T00:39:17.420Z,11.64
2019-05-11T00:44:23.478Z,11.71
2019-05-11T00:49:28.961Z,11.75
2019-05-11T00:54:34.084Z,11.86
2019-05-11T00:59:39.735Z,11.67
2019-05-11T01:04:45.096Z,11.40
2019-05-11T01:09:50.393Z,11.19
2019-05-11T01:14:55.691Z,11.11
2019-05-11T01:20:01.043Z,11.26
2019-05-11T01:25:07.435Z,11.24
2019-05-11T01:30:13.638Z,11.16
2019-05-11T01:35:18.936Z,11.16
2019-05-11T01:40:24.596Z,11.32
2019-05-11T01:45:30.263Z,11.38
2019-05-11T01:50:35.613Z,11.41
2019-05-11T01:55:40.775Z,11.45
2019-05-11T02:00:46.433Z,11.36
2019-05-11T02:05:52.815Z,11.48
2019-05-11T02:11:14.611Z,11.49
2019-05-11T02:16:05.795Z,11.45
2019-05-11T02:21:11.658Z,11.53
2019-05-11T02:26:18.026Z,11.57
2019-05-11T02:31:23.509Z,11.66
2019-05-11T02:36:29.136Z,11.58
2019-05-11T02:41:37.412Z,11.75
2019-05-11T02:46:42.834Z,11.66
2019-05-11T02:51:48.180Z,11.75
2019-05-11T02:56:53.479Z,11.61
2019-05-11T03:01:59.128Z,11.60
2019-05-11T03:07:04.541Z,11.60
2019-05-11T03:12:09.928Z,11.61
2019-05-11T03:17:23.534Z,11.56
2019-05-11T03:22:29.068Z,11.56
2019-05-11T03:27:34.280Z,11.68
2019-05-11T03:32:39.572Z,11.71
2019-05-11T03:37:44.844Z,11.79
2019-05-11T03:42:50.299Z,11.70
2019-05-11T03:47:56.073Z,11.84
2019-05-11T03:53:01.336Z,11.94
2019-05-11T03:58:06.576Z,11.98
2019-05-11T04:03:11.922Z,12.06
2019-05-11T04:08:17.395Z,11.96
2019-05-11T04:13:22.869Z,11.90
2019-05-11T04:18:28.482Z,12.02
2019-05-11T04:23:33.857Z,12.07
2019-05-11T04:28:39.356Z,12.21
2019-05-11T04:33:44.886Z,12.19
2019-05-11T04:38:50.205Z,12.18
2019-05-11T04:43:55.434Z,12.22
2019-05-11T04:49:01.121Z,12.19
2019-05-11T04:54:06.301Z,12.32
2019-05-11T04:59:11.498Z,12.38
2019-05-11T05:04:17.038Z,12.45
2019-05-11T05:09:22.435Z,12.52
2019-05-11T05:14:28.056Z,12.53
2019-05-11T05:19:33.417Z,12.70
2019-05-11T05:24:38.721Z,12.64
2019-05-11T05:29:44.023Z,12.87
2019-05-11T05:34:49.128Z,12.82
2019-05-11T05:39:54.349Z,12.69
2019-05-11T05:44:59.569Z,12.85
2019-05-11T05:50:07.061Z,12.87
2019-05-11T05:55:12.491Z,12.79
2019-05-11T06:00:17.871Z,12.73
2019-05-11T06:05:23.014Z,12.68
2019-05-11T06:10:28.503Z,13.02
2019-05-11T06:15:33.892Z,13.12
2019-05-11T06:20:39.033Z,13.23
2019-05-11T06:25:44.272Z,13.45
2019-05-11T06:30:49.425Z,13.41
2019-05-11T06:35:55.056Z,13.71
2019-05-11T06:41:00.444Z,13.62
2019-05-11T06:46:05.688Z,13.66
2019-05-11T06:51:11.512Z,13.90
2019-05-11T06:56:16.750Z,13.94
2019-05-11T07:01:22.011Z,14.12
2019-05-11T07:06:30.509Z,13.99
2019-05-11T07:11:34.430Z,13.97
2019-05-11T07:16:39.746Z,13.98
2019-05-11T07:21:44.942Z,13.96
2019-05-11T07:26:50.249Z,14.05
2019-05-11T07:31:57.897Z,14.28
2019-05-11T07:37:02.655Z,14.27
2019-05-11T07:42:08.014Z,14.02
2019-05-11T07:47:13.355Z,13.89
2019-05-11T07:52:19.050Z,13.92
2019-05-11T07:57:24.385Z,13.99
2019-05-11T08:02:32.310Z,13.50
2019-05-11T08:07:38.036Z,13.47
2019-05-11T08:12:43.697Z,13.50
2019-05-11T08:17:49.149Z,13.71
2019-05-11T08:22:55.858Z,13.59
2019-05-11T08:28:01.248Z,13.89
2019-05-11T08:33:09.698Z,13.97
2019-05-11T08:38:14.932Z,14.24
2019-05-11T08:43:20.229Z,14.38
2019-05-11T08:48:25.494Z,14.53
2019-05-11T08:53:31.027Z,14.48
2019-05-11T08:58:38.012Z,14.57
2019-05-11T09:03:43.567Z,14.85
2019-05-11T09:08:49.437Z,15.18
2019-05-11T09:13:57.714Z,15.30
2019-05-11T09:19:02.274Z,15.60
2019-05-11T09:24:08.839Z,15.50
2019-05-11T09:29:14.260Z,15.38
2019-05-11T09:34:19.743Z,15.49
2019-05-11T09:39:27.898Z,15.18
2019-05-11T09:44:32.761Z,14.86
2019-05-11T09:49:46.569Z,14.56
2019-05-11T09:54:45.441Z,14.24
2019-05-11T09:59:50.701Z,14.35
2019-05-11T10:04:57.843Z,14.65
2019-05-11T10:10:03.936Z,14.90
2019-05-11T10:15:09.705Z,15.37
2019-05-11T10:20:14.940Z,15.63
2019-05-11T10:25:20.583Z,15.27
2019-05-11T10:30:28.057Z,15.09
2019-05-11T10:35:33.126Z,15.09
2019-05-11T10:40:39.226Z,15.61
2019-05-11T10:45:44.733Z,15.61
2019-05-11T10:50:50.127Z,15.67
2019-05-11T10:55:57.986Z,16.00
2019-05-11T11:01:02.629Z,15.97
2019-05-11T11:06:08.580Z,16.23
2019-05-11T11:11:14.978Z,16.52
2019-05-11T11:16:35.509Z,16.52
2019-05-11T11:21:27.926Z,16.62
2019-05-11T11:26:33.457Z,16.56
2019-05-11T11:31:38.784Z,16.46
2019-05-11T11:36:44.205Z,16.68
2019-05-11T11:41:49.674Z,16.98
2019-05-11T11:46:55.510Z,17.43
2019-05-11T11:52:01.120Z,17.54
2019-05-11T11:57:07.702Z,17.36
2019-05-11T12:02:13.256Z,17.84
2019-05-11T12:07:18.610Z,17.54
2019-05-11T12:12:23.981Z,17.59
2019-05-11T12:17:29.705Z,17.65
2019-05-11T12:22:34.983Z,18.24
2019-05-11T12:27:40.280Z,17.57
2019-05-11T12:32:49.777Z,18.36
2019-05-11T12:37:54.996Z,18.99
2019-05-11T12:43:00.280Z,19.19
2019-05-11T12:48:05.488Z,19.30
2019-05-11T12:53:10.860Z,18.79
2019-05-11T12:58:18.171Z,18.06
2019-05-11T13:03:23.412Z,17.74
2019-05-11T13:08:28.798Z,17.66
2019-05-11T13:13:34.115Z,18.82
2019-05-11T13:18:39.334Z,19.01
2019-05-11T13:23:44.633Z,21.50
2019-05-11T13:28:50.035Z,23.01
2019-05-11T13:33:55.268Z,23.27
2019-05-11T13:39:00.740Z,22.47
2019-05-11T13:44:08.019Z,22.60
2019-05-11T13:49:13.445Z,20.64
2019-05-11T13:54:18.774Z,19.00
2019-05-11T13:59:24.494Z,20.96
2019-05-11T14:04:29.668Z,21.76
2019-05-11T14:09:35.219Z,22.77
2019-05-11T14:14:40.320Z,23.66
2019-05-11T14:19:45.531Z,22.49
2019-05-11T14:24:50.732Z,21.67
2019-05-11T14:29:57.900Z,22.49
2019-05-11T14:35:03.016Z,21.82
2019-05-11T14:40:09.120Z,21.53
2019-05-11T14:45:14.480Z,22.85
2019-05-11T14:50:19.718Z,22.70
2019-05-11T14:55:24.997Z,18.44
2019-05-11T15:00:30.570Z,18.67
2019-05-11T15:05:37.902Z,17.03
2019-05-11T15:10:43.343Z,17.37
2019-05-11T15:15:49.002Z,18.06
2019-05-11T15:20:54.540Z,18.42
2019-05-11T15:25:59.831Z,20.11
2019-05-11T15:31:07.879Z,21.68
2019-05-11T15:36:13.090Z,22.26
2019-05-11T15:41:21.009Z,22.27
2019-05-11T15:46:28.232Z,22.27
2019-05-11T15:51:33.457Z,22.59
2019-05-11T15:56:38.871Z,20.35
2019-05-11T16:01:44.527Z,18.88
2019-05-11T16:06:49.936Z,17.42
2019-05-11T16:11:55.439Z,15.97
2019-05-11T16:17:02.094Z,15.54
2019-05-11T16:22:09.889Z,15.34
2019-05-11T16:27:14.648Z,15.34
2019-05-11T16:32:20.425Z,15.08
2019-05-11T16:37:25.668Z,14.54
2019-05-11T16:42:32.025Z,14.77
2019-05-11T16:47:39.109Z,14.53
2019-05-11T16:52:44.538Z,14.88
2019-05-11T16:57:49.778Z,15.06
2019-05-11T17:02:57.523Z,14.64
2019-05-11T17:08:02.548Z,14.11
2019-05-11T17:13:08.620Z,13.59
2019-05-11T17:18:14.087Z,13.19
2019-05-11T17:23:19.535Z,13.01
2019-05-11T17:28:24.755Z,13.03
2019-05-11T17:33:30.817Z,12.90
2019-05-11T17:38:38.734Z,12.88
2019-05-11T17:43:43.356Z,12.70
2019-05-11T17:48:50.288Z,12.68
2019-05-11T17:53:55.635Z,12.72
2019-05-11T17:59:00.694Z,12.56
2019-05-11T18:04:08.064Z,12.55
2019-05-11T18:09:12.906Z,12.59
2019-05-11T18:14:17.945Z,12.30
2019-05-11T18:19:23.298Z,12.26
2019-05-11T18:24:29.890Z,12.16
2019-05-11T18:29:35.367Z,12.17
2019-05-11T18:34:40.707Z,11.93
2019-05-11T18:39:48.303Z,11.89
2019-05-11T18:44:53.159Z,11.80
2019-05-11T18:49:58.856Z,11.78
2019-05-11T18:55:04.723Z,11.65
2019-05-11T19:00:10.758Z,11.56
2019-05-11T19:05:17.969Z,11.65
2019-05-11T19:10:23.332Z,11.58
2019-05-11T19:15:28.626Z,11.63
2019-05-11T19:20:45.452Z,11.65
2019-05-11T19:25:41.403Z,11.71
2019-05-11T19:30:48.852Z,11.52
2019-05-11T19:35:53.832Z,11.64
2019-05-11T19:40:59.274Z,11.55
2019-05-11T19:46:04.689Z,11.58
2019-05-11T19:51:11.987Z,11.61
2019-05-11T19:56:18.278Z,11.60
2019-05-11T20:01:23.781Z,11.59
2019-05-11T20:06:29.125Z,11.39
2019-05-11T20:11:34.436Z,11.40
2019-05-11T20:16:39.515Z,11.20
2019-05-11T20:21:44.775Z,11.15
2019-05-11T20:26:50.059Z,10.90
2019-05-11T20:31:57.719Z,10.85
2019-05-11T20:37:02.589Z,10.83
2019-05-11T20:42:08.747Z,10.87
2019-05-11T20:47:14.242Z,10.71
2019-05-11T20:52:19.483Z,10.49
2019-05-11T20:57:24.756Z,10.59
2019-05-11T21:02:30.138Z,10.40
2019-05-11T21:07:35.608Z,10.24
2019-05-11T21:12:40.895Z,10.04
2019-05-11T21:17:48.162Z,9.76
2019-05-11T21:22:53.290Z,9.73
2019-05-11T21:27:58.772Z,9.70
2019-05-11T21:33:04.564Z,9.89
2019-05-11T21:38:10.107Z,9.81
2019-05-11T21:43:15.540Z,9.79
2019-05-11T21:48:20.657Z,9.72
2019-05-11T21:53:28.643Z,9.92
2019-05-11T21:58:33.499Z,9.77
2019-05-11T22:03:38.645Z,9.81
2019-05-11T22:08:44.003Z,9.72
2019-05-11T22:13:49.460Z,9.91
2019-05-11T22:18:55.023Z,9.83
2019-05-11T22:24:00.992Z,9.89
2019-05-11T22:29:07.846Z,9.77
2019-05-11T22:34:13.385Z,9.74
2019-05-11T22:39:20.895Z,9.71
2019-05-11T22:44:27.746Z,9.63
2019-05-11T22:49:32.602Z,9.68
2019-05-11T22:54:38.412Z,9.71
2019-05-11T22:59:44.293Z,9.68
2019-05-11T23:04:49.702Z,9.68
2019-05-11T23:09:57.656Z,9.55
2019-05-11T23:15:08.055Z,9.46
2019-05-11T23:20:14.467Z,9.34
2019-05-11T23:25:20.143Z,9.26
2019-05-11T23:30:27.921Z,9.29
2019-05-11T23:35:33.422Z,9.40
2019-05-11T23:40:39.091Z,9.46
2019-05-11T23:45:44.751Z,9.36
2019-05-11T23:50:50.221Z,9.47
2019-05-11T23:55:57.917Z,9.35
